createdAt,value
2018-08-28T00:02:18.383Z,1.70
2018-08-28T00:04:47.156Z,1.40
2018-08-28T00:07:15.912Z,1.50
2018-08-28T00:09:44.784Z,1.93
2018-08-28T00:12:13.567Z,1.50
2018-08-28T00:14:42.340Z,1.40
2018-08-28T00:17:11.206Z,1.30
2018-08-28T00:19:39.875Z,1.37
2018-08-28T00:22:08.714Z,1.77
2018-08-28T00:24:37.504Z,1.60
2018-08-28T00:27:06.280Z,1.53
2018-08-28T00:29:35.056Z,1.33
2018-08-28T00:32:03.876Z,1.60
2018-08-28T00:34:32.729Z,1.60
2018-08-28T00:37:01.520Z,1.70
2018-08-28T00:39:30.307Z,2.00
2018-08-28T00:41:59.101Z,1.37
2018-08-28T00:44:27.993Z,1.40
2018-08-28T00:46:56.762Z,1.60
2018-08-28T00:49:25.536Z,1.30
2018-08-28T00:51:54.345Z,1.60
2018-08-28T00:54:23.233Z,2.10
2018-08-28T00:56:52.056Z,1.80
2018-08-28T00:59:20.815Z,1.90
2018-08-28T01:01:49.613Z,1.57
2018-08-28T01:04:18.379Z,2.20
2018-08-28T01:06:47.149Z,2.50
2018-08-28T01:09:15.987Z,3.00
2018-08-28T01:11:44.810Z,2.00
2018-08-28T01:14:13.609Z,2.33
2018-08-28T01:16:42.435Z,2.37
2018-08-28T01:19:11.205Z,2.53
2018-08-28T01:21:40.314Z,1.80
2018-08-28T01:24:09.088Z,1.93
2018-08-28T01:26:37.879Z,2.33
2018-08-28T01:29:06.687Z,1.57
2018-08-28T01:31:35.452Z,2.30
2018-08-28T01:34:04.264Z,1.77
2018-08-28T01:36:33.062Z,1.80
2018-08-28T01:39:01.821Z,1.77
2018-08-28T01:41:30.603Z,1.53
2018-08-28T01:43:59.437Z,2.13
2018-08-28T01:46:28.265Z,1.80
2018-08-28T01:48:57.039Z,2.47
2018-08-28T01:51:25.824Z,2.27
2018-08-28T01:53:54.596Z,2.00
2018-08-28T01:56:23.377Z,1.70
2018-08-28T01:58:52.150Z,1.80
2018-08-28T02:01:21.772Z,2.50
2018-08-28T02:03:50.540Z,2.37
2018-08-28T02:06:19.293Z,2.10
2018-08-28T02:08:48.072Z,2.33
2018-08-28T02:11:16.850Z,1.70
2018-08-28T02:13:45.620Z,2.30
2018-08-28T02:16:14.416Z,2.30
2018-08-28T02:18:43.196Z,2.50
2018-08-28T02:21:12.225Z,2.60
2018-08-28T02:23:40.984Z,1.97
2018-08-28T02:26:09.808Z,2.33
2018-08-28T02:28:39.329Z,2.07
2018-08-28T02:31:08.691Z,2.23
2018-08-28T02:33:37.604Z,2.10
2018-08-28T02:36:07.248Z,2.30
2018-08-28T02:38:36.009Z,1.67
2018-08-28T02:41:04.940Z,2.00
2018-08-28T02:43:33.697Z,2.40
2018-08-28T02:46:02.528Z,2.00
2018-08-28T02:48:32.752Z,2.60
2018-08-28T02:51:01.608Z,1.70
2018-08-28T02:53:30.393Z,2.10
2018-08-28T02:55:59.175Z,2.13
2018-08-28T02:58:27.961Z,2.10
2018-08-28T03:00:56.752Z,3.73
2018-08-28T03:03:25.520Z,2.27
2018-08-28T03:05:54.312Z,2.63
2018-08-28T03:08:23.096Z,2.00
2018-08-28T03:10:51.946Z,2.50
2018-08-28T03:13:20.728Z,2.57
2018-08-28T03:15:49.611Z,2.80
2018-08-28T03:18:18.576Z,3.70
2018-08-28T03:20:47.348Z,2.97
2018-08-28T03:23:16.305Z,3.23
2018-08-28T03:25:45.132Z,2.97
2018-08-28T03:28:14.185Z,2.83
2018-08-28T03:30:42.950Z,2.87
2018-08-28T03:33:11.715Z,2.80
2018-08-28T03:35:40.503Z,2.83
2018-08-28T03:38:09.279Z,3.20
2018-08-28T03:40:38.060Z,3.30
2018-08-28T03:43:06.875Z,2.80
2018-08-28T03:45:35.662Z,3.10
2018-08-28T03:48:04.433Z,2.90
2018-08-28T03:50:33.296Z,2.23
2018-08-28T03:53:02.060Z,3.20
2018-08-28T03:55:30.864Z,2.50
2018-08-28T03:57:59.673Z,3.00
2018-08-28T04:00:28.439Z,3.00
2018-08-28T04:02:58.824Z,3.27
2018-08-28T04:05:29.838Z,2.77
2018-08-28T04:07:59.561Z,2.57
2018-08-28T04:10:29.762Z,2.63
2018-08-28T04:13:00.042Z,3.43
2018-08-28T04:15:28.867Z,3.27
2018-08-28T04:17:57.642Z,3.07
2018-08-28T04:20:26.422Z,3.23
2018-08-28T04:22:55.217Z,3.70
2018-08-28T04:25:25.206Z,3.43
2018-08-28T04:27:56.035Z,3.40
2018-08-28T04:30:25.595Z,3.63
2018-08-28T04:32:55.859Z,3.27
2018-08-28T04:35:25.930Z,3.80
2018-08-28T04:37:55.201Z,3.90
2018-08-28T04:40:25.617Z,3.57
2018-08-28T04:42:54.726Z,3.07
2018-08-28T04:45:23.493Z,3.60
2018-08-28T04:47:52.258Z,3.00
2018-08-28T04:50:21.020Z,3.00
2018-08-28T04:52:49.804Z,2.90
2018-08-28T04:55:18.585Z,3.30
2018-08-28T04:57:47.357Z,3.37
2018-08-28T05:00:16.249Z,3.03
2018-08-28T05:02:45.366Z,3.33
2018-08-28T05:05:14.494Z,2.80
2018-08-28T05:07:43.277Z,3.37
2018-08-28T05:10:12.469Z,3.60
2018-08-28T05:12:41.425Z,3.63
2018-08-28T05:15:10.273Z,3.00
2018-08-28T05:17:39.077Z,3.97
2018-08-28T05:20:08.025Z,2.90
2018-08-28T05:22:37.061Z,3.40
2018-08-28T05:25:05.970Z,2.40
2018-08-28T05:27:34.736Z,3.20
2018-08-28T05:30:03.516Z,2.33
2018-08-28T05:32:32.338Z,2.57
2018-08-28T05:35:01.167Z,3.90
2018-08-28T05:37:29.919Z,2.70
2018-08-28T05:39:58.676Z,3.97
2018-08-28T05:42:27.425Z,3.53
2018-08-28T05:44:56.180Z,3.40
2018-08-28T05:47:24.928Z,3.30
2018-08-28T05:49:53.692Z,3.50
2018-08-28T05:52:22.594Z,3.60
2018-08-28T05:54:51.382Z,3.70
2018-08-28T05:57:20.131Z,4.20
2018-08-28T05:59:48.879Z,3.87
2018-08-28T06:02:17.642Z,3.97
2018-08-28T06:04:46.383Z,4.53
2018-08-28T06:07:15.187Z,3.57
2018-08-28T06:09:43.927Z,5.20
2018-08-28T06:12:12.731Z,4.63
2018-08-28T06:14:41.559Z,4.97
2018-08-28T06:17:10.330Z,5.73
2018-08-28T06:19:39.090Z,4.50
2018-08-28T06:22:07.855Z,5.43
2018-08-28T06:24:36.618Z,4.20
2018-08-28T06:27:05.381Z,4.30
2018-08-28T06:29:34.153Z,4.27
2018-08-28T06:32:02.923Z,3.53
2018-08-28T06:34:31.692Z,4.17
2018-08-28T06:37:00.477Z,4.20
2018-08-28T06:39:29.260Z,4.43
2018-08-28T06:41:58.014Z,4.57
2018-08-28T06:44:26.920Z,3.77
2018-08-28T06:46:55.684Z,3.93
2018-08-28T06:49:24.466Z,3.83
2018-08-28T06:51:53.289Z,3.93
2018-08-28T06:54:22.072Z,4.30
2018-08-28T06:56:50.936Z,4.10
2018-08-28T06:59:19.689Z,3.53
2018-08-28T07:01:48.741Z,3.23
2018-08-28T07:04:17.492Z,3.23
2018-08-28T07:06:46.232Z,3.60
2018-08-28T07:09:15.002Z,3.23
2018-08-28T07:11:43.780Z,3.20
2018-08-28T07:14:12.549Z,3.20
2018-08-28T07:16:41.311Z,3.03
2018-08-28T07:19:10.081Z,3.30
2018-08-28T07:21:38.894Z,3.17
2018-08-28T07:24:07.673Z,2.93
2018-08-28T07:26:36.504Z,3.33
2018-08-28T07:29:05.296Z,3.50
2018-08-28T07:31:34.092Z,2.57
2018-08-28T07:34:02.852Z,2.87
2018-08-28T07:36:31.605Z,2.83
2018-08-28T07:39:00.351Z,2.67
2018-08-28T07:41:29.110Z,3.43
2018-08-28T07:43:57.879Z,4.67
2018-08-28T07:46:26.660Z,3.13
2018-08-28T07:48:55.453Z,3.03
2018-08-28T07:51:24.277Z,2.60
2018-08-28T07:53:53.087Z,3.27
2018-08-28T07:56:21.856Z,4.23
2018-08-28T07:58:50.621Z,3.40
2018-08-28T08:01:20.295Z,2.97
2018-08-28T08:03:49.044Z,3.40
2018-08-28T08:06:17.817Z,3.40
2018-08-28T08:08:46.612Z,3.17
2018-08-28T08:11:15.418Z,3.33
2018-08-28T08:13:44.172Z,3.50
2018-08-28T08:16:12.985Z,2.80
2018-08-28T08:18:41.774Z,3.20
2018-08-28T08:21:10.559Z,3.43
2018-08-28T08:23:39.324Z,3.23
2018-08-28T08:26:08.180Z,3.97
2018-08-28T08:28:36.961Z,4.13
2018-08-28T08:31:05.814Z,2.87
2018-08-28T08:33:34.572Z,3.67
2018-08-28T08:36:03.336Z,3.23
2018-08-28T08:38:32.083Z,3.53
2018-08-28T08:41:00.868Z,4.27
2018-08-28T08:43:29.620Z,3.73
2018-08-28T08:45:58.385Z,3.83
2018-08-28T08:48:27.144Z,3.73
2018-08-28T08:50:55.912Z,3.97
2018-08-28T08:53:24.872Z,4.57
2018-08-28T08:55:53.656Z,4.83
2018-08-28T08:58:22.460Z,3.37
2018-08-28T09:00:51.248Z,3.90
2018-08-28T09:03:20.053Z,3.97
2018-08-28T09:05:48.860Z,4.00
2018-08-28T09:08:17.625Z,4.40
2018-08-28T09:10:46.394Z,3.60
2018-08-28T09:13:15.176Z,4.20
2018-08-28T09:15:43.926Z,4.70
2018-08-28T09:18:12.714Z,3.80
2018-08-28T09:20:41.457Z,4.47
2018-08-28T09:23:10.243Z,4.37
2018-08-28T09:25:39.032Z,4.30
2018-08-28T09:28:07.797Z,3.77
2018-08-28T09:30:36.574Z,4.17
2018-08-28T09:33:05.417Z,4.00
2018-08-28T09:35:34.692Z,4.33
2018-08-28T09:38:03.481Z,4.43
2018-08-28T09:40:32.242Z,4.00
2018-08-28T09:43:00.981Z,4.80
2018-08-28T09:45:29.794Z,3.63
2018-08-28T09:47:58.629Z,3.93
2018-08-28T09:50:27.384Z,4.00
2018-08-28T09:52:56.173Z,3.67
2018-08-28T09:55:24.960Z,4.43
2018-08-28T09:57:53.739Z,3.77
2018-08-28T10:00:27.392Z,4.47
2018-08-28T10:02:56.816Z,5.20
2018-08-28T10:05:25.809Z,4.30
2018-08-28T10:07:54.673Z,4.90
2018-08-28T10:10:23.369Z,4.30
2018-08-28T10:12:52.145Z,5.73
2018-08-28T10:15:20.920Z,3.50
2018-08-28T10:17:49.683Z,4.27
2018-08-28T10:20:18.456Z,3.83
2018-08-28T10:22:47.288Z,4.77
2018-08-28T10:25:16.005Z,4.80
2018-08-28T10:27:44.849Z,4.87
2018-08-28T10:30:13.658Z,4.50
2018-08-28T10:32:42.392Z,4.30
2018-08-28T10:35:11.157Z,4.30
2018-08-28T10:37:39.940Z,3.93
2018-08-28T10:40:08.720Z,4.40
2018-08-28T10:42:37.486Z,5.20
2018-08-28T10:45:06.460Z,5.00
2018-08-28T10:47:35.240Z,5.17
2018-08-28T10:50:04.078Z,4.83
2018-08-28T10:52:32.988Z,5.00
2018-08-28T10:55:01.753Z,4.20
2018-08-28T10:57:30.508Z,5.23
2018-08-28T10:59:59.260Z,4.70
2018-08-28T11:02:28.042Z,4.43
2018-08-28T11:04:56.832Z,4.67
2018-08-28T11:07:25.612Z,5.00
2018-08-28T11:09:54.362Z,5.23
2018-08-28T11:12:23.143Z,5.00
2018-08-28T11:14:51.902Z,4.70
2018-08-28T11:17:20.659Z,4.50
2018-08-28T11:19:49.508Z,4.73
2018-08-28T11:22:18.289Z,4.83
2018-08-28T11:24:47.045Z,5.00
2018-08-28T11:27:15.885Z,4.87
2018-08-28T11:29:44.660Z,4.93
2018-08-28T11:32:13.444Z,5.10
2018-08-28T11:34:42.199Z,4.80
2018-08-28T11:37:11.044Z,5.53
2018-08-28T11:39:39.804Z,5.00
2018-08-28T11:42:08.589Z,5.73
2018-08-28T11:44:37.332Z,4.37
2018-08-28T11:47:06.169Z,5.13
2018-08-28T11:49:34.911Z,4.87
2018-08-28T11:52:03.708Z,4.97
2018-08-28T11:54:32.496Z,5.53
2018-08-28T11:57:01.281Z,5.23
2018-08-28T11:59:30.052Z,5.23
2018-08-28T12:01:58.826Z,5.80
2018-08-28T12:04:27.599Z,4.70
2018-08-28T12:06:56.391Z,5.53
2018-08-28T12:09:25.117Z,5.10
2018-08-28T12:11:53.883Z,4.60
2018-08-28T12:14:22.656Z,5.47
2018-08-28T12:16:51.440Z,5.83
2018-08-28T12:19:20.201Z,5.70
2018-08-28T12:21:48.974Z,5.20
2018-08-28T12:24:17.788Z,5.80
2018-08-28T12:26:46.565Z,5.47
2018-08-28T12:29:15.335Z,5.33
2018-08-28T12:31:44.101Z,5.17
2018-08-28T12:34:12.899Z,5.10
2018-08-28T12:36:41.710Z,5.73
2018-08-28T12:39:10.504Z,5.67
2018-08-28T12:41:39.316Z,5.07
2018-08-28T12:44:08.190Z,5.37
2018-08-28T12:46:36.852Z,4.97
2018-08-28T12:49:05.663Z,6.17
2018-08-28T12:51:34.460Z,6.30
2018-08-28T12:54:03.243Z,5.40
2018-08-28T12:56:32.035Z,6.13
2018-08-28T12:59:00.801Z,5.37
2018-08-28T13:01:29.565Z,5.73
2018-08-28T13:03:59.488Z,5.40
2018-08-28T13:06:28.660Z,5.37
2018-08-28T13:08:57.777Z,5.33
2018-08-28T13:11:27.374Z,5.57
2018-08-28T13:13:56.384Z,5.07
2018-08-28T13:16:25.145Z,5.93
2018-08-28T13:18:54.178Z,5.40
2018-08-28T13:21:22.917Z,5.83
2018-08-28T13:23:51.706Z,6.00
2018-08-28T13:26:20.481Z,5.87
2018-08-28T13:28:49.250Z,5.67
2018-08-28T13:31:18.029Z,5.97
2018-08-28T13:33:46.871Z,6.00
2018-08-28T13:36:15.619Z,5.30
2018-08-28T13:38:44.408Z,4.97
2018-08-28T13:41:13.185Z,5.43
2018-08-28T13:43:41.945Z,6.30
2018-08-28T13:46:10.688Z,5.90
2018-08-28T13:48:39.530Z,5.60
2018-08-28T13:51:08.327Z,6.83
2018-08-28T13:53:37.143Z,6.03
2018-08-28T13:56:05.892Z,5.50
2018-08-28T13:58:34.689Z,5.77
2018-08-28T14:01:03.473Z,5.63
2018-08-28T14:03:32.254Z,5.63
2018-08-28T14:06:01.065Z,4.77
2018-08-28T14:08:29.813Z,5.90
2018-08-28T14:10:58.582Z,5.17
2018-08-28T14:13:27.499Z,5.20
2018-08-28T14:15:56.196Z,6.07
2018-08-28T14:18:25.046Z,5.10
2018-08-28T14:20:53.804Z,6.23
2018-08-28T14:23:22.641Z,5.90
2018-08-28T14:25:52.002Z,4.80
2018-08-28T14:28:20.808Z,5.50
2018-08-28T14:30:49.582Z,4.93
2018-08-28T14:33:18.388Z,5.33
2018-08-28T14:35:47.278Z,5.30
2018-08-28T14:38:15.998Z,5.83
2018-08-28T14:40:44.881Z,5.57
2018-08-28T14:43:13.668Z,6.07
2018-08-28T14:45:42.436Z,4.87
2018-08-28T14:48:11.213Z,6.07
2018-08-28T14:50:39.985Z,6.50
2018-08-28T14:53:08.791Z,5.17
2018-08-28T14:55:37.564Z,5.03
2018-08-28T14:58:06.402Z,6.00
2018-08-28T15:00:35.205Z,5.20
2018-08-28T15:03:03.994Z,5.13
2018-08-28T15:05:32.776Z,5.30
2018-08-28T15:08:01.515Z,5.20
2018-08-28T15:10:30.404Z,5.80
2018-08-28T15:12:59.163Z,5.23
2018-08-28T15:15:27.933Z,5.03
2018-08-28T15:17:56.732Z,5.40
2018-08-28T15:20:25.484Z,5.03
2018-08-28T15:22:54.247Z,5.70
2018-08-28T15:25:23.012Z,4.67
2018-08-28T15:27:51.788Z,4.97
2018-08-28T15:30:20.545Z,5.60
2018-08-28T15:32:49.334Z,5.37
2018-08-28T15:35:18.129Z,5.60
2018-08-28T15:37:46.884Z,6.07
2018-08-28T15:40:15.687Z,5.37
2018-08-28T15:42:44.446Z,5.13
2018-08-28T15:45:13.201Z,4.77
2018-08-28T15:47:41.980Z,5.50
2018-08-28T15:50:10.770Z,6.13
2018-08-28T15:52:39.528Z,5.57
2018-08-28T15:55:08.328Z,5.20
2018-08-28T15:57:37.163Z,5.37
2018-08-28T16:00:07.169Z,5.33
2018-08-28T16:02:35.993Z,5.57
2018-08-28T16:05:04.825Z,5.03
2018-08-28T16:07:33.588Z,5.20
2018-08-28T16:10:02.353Z,5.47
2018-08-28T16:12:31.110Z,5.50
2018-08-28T16:14:59.919Z,5.83
2018-08-28T16:17:28.699Z,5.30
2018-08-28T16:19:57.475Z,6.03
2018-08-28T16:22:32.014Z,5.80
2018-08-28T16:25:00.777Z,5.70
2018-08-28T16:27:29.578Z,5.80
2018-08-28T16:29:58.355Z,5.37
2018-08-28T16:32:27.124Z,5.97
2018-08-28T16:34:55.871Z,4.80
2018-08-28T16:37:24.714Z,6.10
2018-08-28T16:39:53.477Z,5.27
2018-08-28T16:42:22.247Z,5.30
2018-08-28T16:44:51.016Z,5.37
2018-08-28T16:47:19.802Z,5.97
2018-08-28T16:49:48.585Z,5.43
2018-08-28T16:52:17.361Z,4.83
2018-08-28T16:54:46.136Z,6.17
2018-08-28T16:57:14.909Z,5.90
2018-08-28T16:59:43.652Z,6.17
2018-08-28T17:02:12.418Z,5.20
2018-08-28T17:04:41.164Z,5.57
2018-08-28T17:07:09.975Z,5.37
2018-08-28T17:09:38.704Z,5.00
2018-08-28T17:12:07.491Z,5.63
2018-08-28T17:14:36.276Z,5.60
2018-08-28T17:17:05.136Z,6.30
2018-08-28T17:19:34.270Z,6.70
2018-08-28T17:22:03.296Z,6.53
2018-08-28T17:24:32.104Z,5.17
2018-08-28T17:27:00.932Z,5.20
2018-08-28T17:29:29.774Z,4.73
2018-08-28T17:31:58.655Z,5.03
2018-08-28T17:34:27.944Z,4.87
2018-08-28T17:36:56.758Z,4.10
2018-08-28T17:39:25.594Z,3.87
2018-08-28T17:41:54.984Z,3.60
2018-08-28T17:44:23.775Z,4.37
2018-08-28T17:46:52.528Z,4.27
2018-08-28T17:49:21.338Z,3.93
2018-08-28T17:51:50.415Z,4.30
2018-08-28T17:54:19.235Z,3.53
2018-08-28T17:56:47.981Z,4.50
2018-08-28T17:59:16.739Z,4.00
2018-08-28T18:01:45.520Z,4.57
2018-08-28T18:04:14.456Z,4.57
2018-08-28T18:06:43.253Z,4.10
2018-08-28T18:09:12.072Z,4.47
2018-08-28T18:11:40.865Z,3.77
2018-08-28T18:14:09.704Z,4.60
2018-08-28T18:16:38.630Z,3.33
2018-08-28T18:19:07.465Z,3.93
2018-08-28T18:21:36.393Z,4.63
2018-08-28T18:24:05.250Z,4.43
2018-08-28T18:26:34.077Z,3.60
2018-08-28T18:29:02.959Z,3.77
2018-08-28T18:31:31.813Z,3.97
2018-08-28T18:34:00.695Z,3.70
2018-08-28T18:36:29.486Z,3.17
2018-08-28T18:38:58.647Z,4.77
2018-08-28T18:41:27.509Z,4.63
2018-08-28T18:43:56.283Z,4.63
2018-08-28T18:46:25.139Z,4.00
2018-08-28T18:48:54.006Z,4.00
2018-08-28T18:51:22.823Z,3.27
2018-08-28T18:53:51.656Z,4.37
2018-08-28T18:56:20.752Z,4.00
2018-08-28T18:58:49.684Z,3.30
2018-08-28T19:01:18.443Z,4.07
2018-08-28T19:03:47.390Z,4.27
2018-08-28T19:06:16.442Z,4.50
2018-08-28T19:08:45.468Z,3.40
2018-08-28T19:11:14.535Z,3.50
2018-08-28T19:13:43.376Z,3.40
2018-08-28T19:16:12.470Z,3.40
2018-08-28T19:18:41.284Z,3.53
2018-08-28T19:21:10.148Z,4.13
2018-08-28T19:23:38.909Z,3.97
2018-08-28T19:26:08.116Z,4.03
2018-08-28T19:28:37.489Z,4.10
2018-08-28T19:31:06.585Z,4.00
2018-08-28T19:33:35.605Z,4.40
2018-08-28T19:36:04.436Z,3.73
2018-08-28T19:38:33.611Z,3.80
2018-08-28T19:41:02.543Z,3.70
2018-08-28T19:43:31.335Z,3.93
2018-08-28T19:46:00.368Z,3.60
2018-08-28T19:48:29.210Z,3.37
2018-08-28T19:50:58.029Z,3.70
2018-08-28T19:53:27.609Z,4.00
2018-08-28T19:55:56.556Z,3.93
2018-08-28T19:58:25.704Z,4.40
2018-08-28T20:00:54.501Z,3.27
2018-08-28T20:03:23.582Z,4.20
2018-08-28T20:05:52.803Z,3.43
2018-08-28T20:08:22.319Z,3.70
2018-08-28T20:10:51.254Z,4.13
2018-08-28T20:13:20.008Z,3.60
2018-08-28T20:15:48.879Z,4.10
2018-08-28T20:18:17.783Z,3.90
2018-08-28T20:20:46.633Z,4.27
2018-08-28T20:23:15.630Z,3.93
2018-08-28T20:25:44.472Z,4.10
2018-08-28T20:28:13.576Z,4.27
2018-08-28T20:30:42.320Z,3.60
2018-08-28T20:33:11.100Z,4.10
2018-08-28T20:35:39.917Z,3.87
2018-08-28T20:38:08.712Z,3.73
2018-08-28T20:40:37.616Z,4.27
2018-08-28T20:43:06.455Z,3.83
2018-08-28T20:45:35.252Z,4.47
2018-08-28T20:48:04.630Z,4.60
2018-08-28T20:50:35.963Z,4.10
2018-08-28T20:53:06.433Z,4.10
2018-08-28T20:55:35.584Z,4.73
2018-08-28T20:58:04.585Z,4.73
2018-08-28T21:00:36.113Z,5.37
2018-08-28T21:03:05.628Z,4.57
2018-08-28T21:05:34.572Z,4.73
2018-08-28T21:08:03.420Z,4.40
2018-08-28T21:10:32.199Z,4.63
2018-08-28T21:13:01.088Z,4.70
2018-08-28T21:15:31.794Z,4.23
2018-08-28T21:18:00.742Z,4.93
2018-08-28T21:20:29.660Z,5.43
2018-08-28T21:22:58.500Z,4.13
2018-08-28T21:25:27.272Z,4.30
2018-08-28T21:27:56.108Z,5.00
2018-08-28T21:30:24.906Z,5.47
2018-08-28T21:32:53.673Z,5.63
2018-08-28T21:35:22.453Z,5.17
2018-08-28T21:37:51.309Z,5.40
2018-08-28T21:40:20.093Z,5.47
2018-08-28T21:42:49.134Z,4.83
2018-08-28T21:45:17.917Z,4.90
2018-08-28T21:47:46.689Z,5.43
2018-08-28T21:50:15.973Z,5.43
2018-08-28T21:52:44.989Z,5.00
2018-08-28T21:55:13.801Z,5.78
2018-08-28T21:57:42.547Z,5.77
2018-08-28T22:00:11.684Z,5.20
2018-08-28T22:02:40.480Z,5.50
2018-08-28T22:05:11.856Z,5.23
2018-08-28T22:07:41.846Z,5.17
2018-08-28T22:10:11.135Z,4.97
2018-08-28T22:13:20.437Z,6.13
2018-08-28T22:15:49.849Z,4.77
2018-08-28T22:18:18.884Z,5.17
2018-08-28T22:20:53.031Z,5.43
2018-08-28T22:23:21.792Z,5.20
2018-08-28T22:25:51.170Z,5.93
2018-08-28T22:28:19.955Z,5.17
2018-08-28T22:30:49.333Z,5.63
2018-08-28T22:33:18.460Z,5.10
2018-08-28T22:35:47.284Z,4.93
2018-08-28T22:38:16.101Z,6.17
2018-08-28T22:40:44.908Z,5.33
2018-08-28T22:43:18.104Z,5.03
2018-08-28T22:45:46.915Z,5.07
2018-08-28T22:48:15.759Z,5.03
2018-08-28T22:50:44.910Z,5.87
2018-08-28T22:53:13.702Z,6.03
2018-08-28T22:55:42.483Z,5.83
2018-08-28T22:58:11.284Z,5.60
2018-08-28T23:00:40.112Z,5.03
2018-08-28T23:03:08.879Z,5.70
2018-08-28T23:05:37.652Z,5.30
2018-08-28T23:08:06.419Z,5.30
2018-08-28T23:10:35.161Z,5.23
2018-08-28T23:13:04.089Z,5.33
2018-08-28T23:15:33.160Z,4.87
2018-08-28T23:18:01.958Z,4.77
2018-08-28T23:20:30.724Z,5.30
2018-08-28T23:22:59.468Z,5.10
2018-08-28T23:25:28.239Z,5.47
2018-08-28T23:27:56.984Z,5.40
2018-08-28T23:30:25.752Z,6.33
2018-08-28T23:32:54.636Z,4.90
2018-08-28T23:35:23.420Z,5.07
2018-08-28T23:37:52.175Z,5.40
2018-08-28T23:40:20.928Z,5.40
2018-08-28T23:42:49.704Z,5.60
2018-08-28T23:45:18.572Z,4.77
2018-08-28T23:47:47.320Z,4.53
2018-08-28T23:50:16.156Z,4.40
2018-08-28T23:52:44.893Z,5.13
2018-08-28T23:55:13.672Z,5.43
2018-08-28T23:57:42.509Z,5.40
